Choteau, Montana
Current Conditions -  °F | °C
As of 3:53 PM on Wednesday 17 Dec 2014 (Local Time) from KGTF Reporting Station
Clear Clear  
Wind Chill: 30°   Ceiling: Unl
Heat Index: 37°   Visibility: 10mi
Dew Point: 29°   Wind: 9mph
Humidity: 73%   Direction: 210°SSW
Pressure: 29.84"   Gusts: NA
Location:  47.81°N, 112.18°W
Report Text: KGTF 172253Z 21008KT 10SM CLR 03/M02 A2984 RMK AO2 SLP148 T00281017
Loading
Personal Weather Stations






























Interactive Weather Map New forecast layout! Learn more

10-Day Weather Forecast

Advertisements
Track Severe Weather on mobile